Time;durP1;ratioP1;P1;durP2;ratioP2;P2;SDS_P1;SDS_P2;PMS_P1;PMS_P2;Temp;Humidity;BMP_temperature;BMP_pressure;BME280_temperature;BME280_humidity;BME280_pressure;Samples;Min_cycle;Max_cycle;Signal;HPM_P1;HPM_P2
2022/04/17 00:00:32;;;;;;;2.33;1.23;;;;;;;8.03;35.67;99673.63;5061903;28;20104;-77
2022/04/17 00:02:58;;;;;;;3.47;1.10;;;;;;;7.85;35.47;99680.59;5098012;28;20383;-77
2022/04/17 00:05:24;;;;;;;2.10;1.27;;;;;;;7.84;35.26;99652.50;5097032;28;20055;-77
2022/04/17 00:07:49;;;;;;;1.80;1.30;;;;;;;7.86;35.26;99688.41;5094591;28;20043;-77
2022/04/17 00:10:16;;;;;;;1.13;1.00;;;;;;;7.89;35.25;99682.84;5060849;28;20048;-76
2022/04/17 00:12:42;;;;;;;1.83;1.00;;;;;;;7.89;35.22;99685.47;5111571;28;20036;-76
2022/04/17 00:15:11;;;;;;;1.83;1.60;;;;;;;7.88;35.17;99677.69;5060963;28;20532;-77
2022/04/17 00:17:42;;;;;;;1.33;1.23;;;;;;;7.95;35.35;99692.84;5096279;28;20035;-76
2022/04/17 00:20:16;;;;;;;3.42;1.30;;;;;;;7.81;35.13;99660.72;5113874;28;20047;-77
2022/04/17 00:22:42;;;;;;;4.00;1.30;;;;;;;7.74;35.29;99705.38;5095599;28;20042;-77
2022/04/17 00:25:09;;;;;;;3.40;2.20;;;;;;;7.86;34.91;99698.13;5060912;28;20044;-77
2022/04/17 00:27:36;;;;;;;2.00;1.10;;;;;;;7.75;35.20;99683.25;5076733;28;20104;-77
2022/04/17 00:30:04;;;;;;;1.73;1.30;;;;;;;7.96;34.94;99710.41;5095339;28;20039;-77
2022/04/17 00:32:31;;;;;;;2.60;1.17;;;;;;;7.67;35.19;99688.38;5077412;28;20412;-76
2022/04/17 00:34:58;;;;;;;6.67;1.20;;;;;;;7.74;35.14;99691.31;5094779;28;20067;-76
2022/04/17 00:37:24;;;;;;;1.70;1.40;;;;;;;7.61;35.21;99694.22;5112569;28;20126;-76
2022/04/17 00:39:51;;;;;;;1.70;1.20;;;;;;;7.52;34.98;99686.31;5060374;28;20142;-76
2022/04/17 00:42:17;;;;;;;1.33;1.10;;;;;;;7.59;34.99;99690.91;5077241;28;20488;-76
2022/04/17 00:44:42;;;;;;;2.40;1.40;;;;;;;7.53;35.09;99693.25;5061272;28;20599;-76
2022/04/17 00:47:09;;;;;;;2.73;1.40;;;;;;;7.52;35.05;99697.69;5060502;28;20090;-76
2022/04/17 00:49:35;;;;;;;1.60;1.13;;;;;;;7.46;35.08;99690.31;5094637;28;20043;-75
2022/04/17 00:52:03;;;;;;;4.70;1.23;;;;;;;7.69;34.91;99704.09;5077680;28;20043;-76
2022/04/17 00:54:30;;;;;;;1.87;1.20;;;;;;;7.71;35.05;99710.94;5078034;28;20054;-76
2022/04/17 00:56:56;;;;;;;1.30;1.20;;;;;;;7.56;35.23;99685.91;5111443;28;20044;-76
2022/04/17 00:59:22;;;;;;;2.00;1.37;;;;;;;7.63;35.04;99689.66;5111546;28;20047;-76
2022/04/17 01:01:48;;;;;;;1.13;1.00;;;;;;;7.49;35.11;99695.31;5093866;28;20081;-76
2022/04/17 01:04:16;;;;;;;3.03;1.20;;;;;;;7.57;35.09;99694.63;5077241;28;20067;-77
2022/04/17 01:06:42;;;;;;;2.00;1.20;;;;;;;7.60;34.94;99705.78;5094733;28;20036;-76
2022/04/17 01:09:08;;;;;;;2.23;1.40;;;;;;;7.64;34.86;99683.38;5093362;28;20416;-77
2022/04/17 01:11:38;;;;;;;2.97;1.30;;;;;;;7.60;34.80;99662.66;5094121;28;20044;-77
2022/04/17 01:14:05;;;;;;;3.77;1.17;;;;;;;7.61;34.91;99678.38;5095942;28;20047;-77
2022/04/17 01:16:31;;;;;;;1.50;1.10;;;;;;;7.59;34.98;99700.63;5111224;28;20442;-76
2022/04/17 01:19:02;;;;;;;2.70;1.17;;;;;;;7.60;34.83;99704.94;5060310;28;20036;-76
2022/04/17 01:21:28;;;;;;;;;;;;;;;8.00;34.36;99693.28;5110637;28;20130;-77
2022/04/17 01:26:56;;;;;;;2.40;1.17;;;;;;;7.79;34.77;99700.53;5095985;28;20633;-76
2022/04/17 01:29:27;;;;;;;5.50;1.03;;;;;;;7.73;34.85;99702.88;5110018;28;20047;-76
2022/04/17 01:31:54;;;;;;;2.50;1.17;;;;;;;7.70;34.76;99703.16;5093896;28;20413;-76
2022/04/17 01:34:21;;;;;;;1.47;1.20;;;;;;;7.75;34.94;99706.22;5111559;28;20035;-77
2022/04/17 01:36:49;;;;;;;2.07;1.10;;;;;;;7.73;34.97;99716.94;5093503;28;20039;-76
2022/04/17 01:39:15;;;;;;;1.40;1.20;;;;;;;7.69;34.66;99712.88;5080666;28;20043;-76
2022/04/17 01:41:41;;;;;;;1.20;1.00;;;;;;;7.56;34.89;99695.63;5063656;28;20517;-76
2022/04/17 01:44:07;;;;;;;2.30;1.03;;;;;;;7.73;34.79;99718.72;5097390;28;20043;-77
2022/04/17 01:46:33;;;;;;;2.50;1.20;;;;;;;7.65;34.82;99715.94;5098133;28;20083;-76
2022/04/17 01:48:59;;;;;;;4.00;1.20;;;;;;;7.53;35.04;99722.31;5114863;28;20065;-77
2022/04/17 01:51:25;;;;;;;1.27;1.17;;;;;;;7.62;34.64;99717.06;5064075;28;20419;-76
2022/04/17 01:53:51;;;;;;;2.60;1.13;;;;;;;7.61;34.67;99710.09;5083306;28;20130;-76
2022/04/17 01:56:17;;;;;;;1.40;1.20;;;;;;;7.57;34.71;99703.41;5064689;28;20457;-76
2022/04/17 01:58:43;;;;;;;1.83;0.97;;;;;;;7.38;34.60;99703.38;5064702;28;20559;-77
2022/04/17 02:01:08;;;;;;;2.17;1.30;;;;;;;7.52;34.68;99694.25;5080048;28;20047;-77
2022/04/17 02:03:37;;;;;;;1.33;1.10;;;;;;;7.51;34.46;99697.84;5097933;28;20036;-76
2022/04/17 02:06:03;;;;;;;1.53;1.03;;;;;;;7.50;34.27;99704.09;5064135;28;20544;-77
2022/04/17 02:08:29;;;;;;;1.63;1.00;;;;;;;7.38;34.42;99665.56;5097396;28;20043;-77
2022/04/17 02:10:55;;;;;;;4.67;1.17;;;;;;;7.46;34.42;99690.31;5063888;28;20111;-77
2022/04/17 02:13:23;;;;;;;2.07;1.10;;;;;;;7.43;34.25;99684.47;5098258;28;20055;-76
2022/04/17 02:15:53;;;;;;;1.10;1.00;;;;;;;7.57;34.31;99697.28;5114181;28;20074;-76
2022/04/17 02:18:20;;;;;;;2.65;1.23;;;;;;;7.41;34.36;99681.97;5097200;28;20039;-77
2022/04/17 02:20:47;;;;;;;1.63;1.10;;;;;;;7.43;34.38;99700.31;5097111;28;20048;-76
2022/04/17 02:23:13;;;;;;;2.40;1.13;;;;;;;7.56;34.31;99701.75;5062578;28;20179;-77
2022/04/17 02:25:40;;;;;;;1.97;1.27;;;;;;;7.36;34.27;99694.78;5113277;28;20120;-77
2022/04/17 02:28:06;;;;;;;1.80;1.20;;;;;;;7.43;34.42;99700.31;5096700;28;20060;-77
2022/04/17 02:30:31;;;;;;;2.10;1.10;;;;;;;7.37;34.27;99696.44;5096795;28;20527;-77
2022/04/17 02:32:57;;;;;;;1.33;1.17;;;;;;;7.39;34.24;99694.50;5062759;28;20516;-77
2022/04/17 02:35:23;;;;;;;2.10;1.27;;;;;;;7.34;34.25;99690.56;5096938;28;20043;-77
2022/04/17 02:37:48;;;;;;;3.87;1.30;;;;;;;7.19;34.21;99673.44;5063079;28;20500;-76
2022/04/17 02:40:14;;;;;;;2.23;1.10;;;;;;;7.41;34.08;99713.66;5062967;28;20050;-77
2022/04/17 02:42:43;;;;;;;3.27;1.10;;;;;;;7.28;34.03;99680.56;5062632;28;20043;-77
2022/04/17 02:45:09;;;;;;;3.53;1.10;;;;;;;7.44;34.23;99700.19;5079757;28;20120;-77
2022/04/17 02:47:44;;;;;;;5.40;1.20;;;;;;;7.45;33.94;99715.09;5064733;28;20039;-77
2022/04/17 02:50:12;;;;;;;1.67;1.33;;;;;;;7.57;33.96;99713.13;5063193;28;20499;-77
2022/04/17 02:52:38;;;;;;;3.57;1.40;;;;;;;7.45;34.16;99712.44;5096308;28;20123;-76
2022/04/17 02:55:05;;;;;;;1.60;1.27;;;;;;;7.62;33.94;99717.06;5078470;28;20142;-77
2022/04/17 02:57:31;;;;;;;3.50;1.20;;;;;;;7.54;34.02;99721.34;5078496;28;20054;-77
2022/04/17 02:59:57;;;;;;;4.10;1.30;;;;;;;7.40;33.94;99700.59;5061827;28;20521;-77
2022/04/17 03:07:55;;;;;;;1.77;1.20;;;;;;;7.49;34.23;99727.03;5113051;28;20039;-77
2022/04/17 03:10:21;;;;;;;2.60;1.20;;;;;;;7.25;34.36;99716.00;5079021;28;20047;-77
2022/04/17 03:12:48;;;;;;;2.47;1.33;;;;;;;7.35;34.21;99719.50;5097535;28;20122;-77
2022/04/17 03:15:13;;;;;;;2.73;1.30;;;;;;;7.31;34.19;99735.75;5098633;28;20508;-78
2022/04/17 03:17:39;;;;;;;2.13;1.00;;;;;;;7.27;34.45;99729.09;5063333;28;20054;-77
2022/04/17 03:20:05;;;;;;;1.93;1.20;;;;;;;7.30;34.73;99729.66;5062405;28;20043;-77
2022/04/17 03:22:36;;;;;;;1.90;1.30;;;;;;;7.34;34.59;99730.19;5063051;28;20684;-77
2022/04/17 03:25:06;;;;;;;2.55;1.30;;;;;;;7.46;34.84;99731.75;5096980;28;20501;-77
2022/04/17 03:27:32;;;;;;;2.23;1.10;;;;;;;7.15;34.73;99709.03;5096198;28;20104;-77
2022/04/17 03:29:57;;;;;;;2.03;1.40;;;;;;;7.29;34.71;99729.78;5112579;28;20063;-77
2022/04/17 03:32:23;;;;;;;3.37;1.30;;;;;;;7.26;34.82;99719.50;5062342;28;20044;-77
2022/04/17 03:34:49;;;;;;;1.37;0.97;;;;;;;7.21;35.04;99705.84;5078852;28;20092;-77
2022/04/17 03:37:16;;;;;;;2.47;1.17;;;;;;;7.04;35.61;99714.41;5095786;28;20046;-77
2022/04/17 03:39:44;;;;;;;5.30;1.40;;;;;;;7.07;35.61;99727.34;5096467;28;20075;-77
2022/04/17 03:42:10;;;;;;;2.43;1.23;;;;;;;7.17;35.60;99734.34;5096379;28;20052;-77
2022/04/17 03:44:36;;;;;;;2.73;1.33;;;;;;;7.18;35.66;99724.63;5078844;28;20142;-76
2022/04/17 03:47:02;;;;;;;2.90;1.40;;;;;;;7.30;35.39;99732.31;5061791;28;20135;-77
2022/04/17 03:49:31;;;;;;;2.20;1.20;;;;;;;7.13;35.53;99729.44;5077670;28;20138;-77
2022/04/17 03:51:57;;;;;;;2.27;1.20;;;;;;;7.10;35.77;99729.72;5078593;28;20146;-76
2022/04/17 03:54:23;;;;;;;1.97;1.07;;;;;;;7.08;35.78;99731.66;5111662;28;20043;-77
2022/04/17 03:56:49;;;;;;;3.63;1.30;;;;;;;7.19;36.04;99731.56;5077941;28;20047;-76
2022/04/17 03:59:15;;;;;;;2.60;1.10;;;;;;;7.29;35.86;99733.25;5061703;28;20036;-78
2022/04/17 04:01:41;;;;;;;2.57;1.03;;;;;;;7.20;36.40;99735.84;5061914;28;20493;-78
2022/04/17 04:04:07;;;;;;;1.97;1.10;;;;;;;7.17;36.70;99728.19;5060696;28;20160;-78
2022/04/17 04:06:33;;;;;;;2.67;1.23;;;;;;;7.21;37.38;99732.28;5094574;28;20043;-78
2022/04/17 04:08:59;;;;;;;5.03;1.50;;;;;;;6.92;37.84;99704.94;5094793;28;20122;-77
2022/04/17 04:11:25;;;;;;;1.50;1.40;;;;;;;6.95;38.52;99744.25;5060947;28;20149;-78
2022/04/17 04:13:50;;;;;;;3.80;1.37;;;;;;;6.87;38.72;99753.66;5076935;28;20043;-78
2022/04/17 04:16:16;;;;;;;8.90;2.17;;;;;;;6.80;38.79;99726.13;5077036;28;20043;-77
2022/04/17 04:18:42;;;;;;;1.53;1.30;;;;;;;7.08;39.21;99744.84;5061295;28;20043;-76
2022/04/17 04:21:07;;;;;;;2.87;1.50;;;;;;;6.97;39.05;99744.94;5061431;28;20100;-77
2022/04/17 04:23:34;;;;;;;11.43;1.50;;;;;;;7.19;39.80;99752.69;5061507;28;20046;-77
2022/04/17 04:26:00;;;;;;;5.03;1.20;;;;;;;7.18;40.19;99759.75;5094481;28;20517;-77
2022/04/17 04:28:39;;;;;;;2.03;1.30;;;;;;;7.19;40.40;99777.31;5094568;28;20164;-77
2022/04/17 04:31:10;;;;;;;4.73;1.60;;;;;;;7.50;40.23;99780.75;5111490;28;20036;-77
2022/04/17 04:33:38;;;;;;;1.63;1.40;;;;;;;7.41;40.52;99752.50;5111190;28;20046;-77
2022/04/17 04:36:06;;;;;;;4.07;1.50;;;;;;;7.62;40.31;99777.00;5061210;28;20074;-77
2022/04/17 04:38:32;;;;;;;4.00;1.50;;;;;;;7.47;40.06;99749.31;5077471;28;20047;-77
2022/04/17 04:41:01;;;;;;;2.47;1.60;;;;;;;7.52;40.32;99776.97;5110334;28;20074;-77
2022/04/17 04:43:27;;;;;;;2.43;1.30;;;;;;;7.68;40.21;99779.94;5078728;28;20087;-77
2022/04/17 04:46:08;;;;;;;2.60;1.50;;;;;;;7.69;40.08;99775.47;5095533;28;20139;-77
2022/04/17 04:51:19;;;;;;;2.63;1.30;;;;;;;7.89;39.39;99779.81;5094933;28;20043;-77
2022/04/17 04:53:45;;;;;;;2.30;1.40;;;;;;;7.77;39.58;99773.00;5095321;28;20044;-77
2022/04/17 04:56:13;;;;;;;2.03;1.30;;;;;;;7.75;39.39;99773.13;5095497;28;20058;-79
2022/04/17 04:58:39;;;;;;;6.23;1.43;;;;;;;7.83;39.55;99777.72;5078491;28;20089;-77
2022/04/17 05:01:05;;;;;;;2.53;1.47;;;;;;;7.88;39.07;99772.88;5094334;28;20126;-77
2022/04/17 05:03:31;;;;;;;4.97;1.30;;;;;;;7.84;39.34;99761.72;5060988;28;20142;-78
2022/04/17 05:05:56;;;;;;;1.53;1.30;;;;;;;7.89;38.82;99767.44;5060367;28;20044;-77
2022/04/17 05:08:22;;;;;;;4.60;1.40;;;;;;;7.97;39.12;99759.66;5077051;28;20040;-77
2022/04/17 05:10:48;;;;;;;2.63;1.10;;;;;;;8.05;39.03;99762.47;5076605;28;20462;-78
2022/04/17 05:13:15;;;;;;;2.50;1.20;;;;;;;7.98;39.25;99760.50;5077172;28;20062;-78
2022/04/17 05:15:41;;;;;;;3.53;1.50;;;;;;;7.91;39.36;99754.94;5110695;28;20051;-77
2022/04/17 05:18:07;;;;;;;1.60;1.30;;;;;;;7.93;39.36;99760.91;5093510;28;20473;-77
2022/04/17 05:20:33;;;;;;;2.70;1.30;;;;;;;7.95;39.16;99758.13;5076375;28;20138;-77
2022/04/17 05:23:15;;;;;;;2.07;1.30;;;;;;;8.01;39.36;99758.41;5076112;28;20138;-77
2022/04/17 05:25:42;;;;;;;4.00;1.60;;;;;;;7.98;38.73;99763.16;5095394;28;20055;-77
2022/04/17 05:28:08;;;;;;;3.50;1.67;;;;;;;8.08;38.67;99767.47;5092752;28;20100;-77
2022/04/17 05:30:33;;;;;;;4.67;1.60;;;;;;;7.96;38.59;99789.75;5076911;28;20051;-77
2022/04/17 05:32:59;;;;;;;2.23;1.73;;;;;;;7.83;38.83;99780.38;5093343;28;20113;-77
2022/04/17 05:35:26;;;;;;;2.00;1.47;;;;;;;7.78;39.16;99794.00;5059271;28;20560;-77
2022/04/17 05:37:51;;;;;;;2.47;1.33;;;;;;;7.86;38.97;99790.66;5059514;28;20146;-77
2022/04/17 05:40:17;;;;;;;3.97;1.30;;;;;;;7.83;39.25;99793.59;5059853;28;20412;-77
2022/04/17 05:42:43;;;;;;;3.73;1.70;;;;;;;7.73;39.15;99785.66;5093117;28;20130;-77
2022/04/17 05:45:09;;;;;;;4.23;1.50;;;;;;;7.63;39.38;99798.00;5059059;28;20651;-77
2022/04/17 05:47:35;;;;;;;2.70;1.70;;;;;;;7.61;39.46;99801.78;5075964;28;20386;-78
2022/04/17 05:50:01;;;;;;;4.07;1.50;;;;;;;7.70;39.66;99804.44;5109978;28;20040;-78
2022/04/17 05:52:28;;;;;;;5.27;1.50;;;;;;;7.71;39.57;99805.25;5093404;28;20068;-77
2022/04/17 05:54:56;;;;;;;3.73;1.70;;;;;;;7.86;39.26;99804.75;5058808;28;20039;-78
2022/04/17 05:57:22;;;;;;;3.90;1.77;;;;;;;7.83;39.35;99797.09;5059097;28;20040;-79
2022/04/17 05:59:48;;;;;;;9.17;1.63;;;;;;;7.86;39.07;99806.53;5111043;28;20069;-77
2022/04/17 06:02:15;;;;;;;4.33;1.80;;;;;;;7.77;39.31;99802.91;5075484;28;20459;-77
2022/04/17 06:04:41;;;;;;;5.23;1.37;;;;;;;8.09;39.19;99818.53;5109834;28;20134;-77
2022/04/17 06:07:08;;;;;;;3.33;1.50;;;;;;;7.94;39.14;99819.91;5111341;28;20039;-78
2022/04/17 06:09:35;;;;;;;5.27;1.50;;;;;;;8.05;38.97;99811.88;5092925;28;20068;-78
2022/04/17 06:12:01;;;;;;;3.03;1.50;;;;;;;8.04;38.76;99828.72;5092708;28;20176;-77
2022/04/17 06:14:27;;;;;;;4.50;1.87;;;;;;;7.85;38.92;99811.00;5092282;28;20568;-77
2022/04/17 06:16:52;;;;;;;3.87;1.50;;;;;;;7.75;38.94;99819.91;5092687;28;20128;-78
2022/04/17 06:19:18;;;;;;;2.37;1.60;;;;;;;7.87;38.75;99826.75;5059789;28;20044;-77
2022/04/17 06:21:44;;;;;;;3.97;1.80;;;;;;;7.83;38.90;99820.88;5061509;28;20048;-77
2022/04/17 06:24:10;;;;;;;3.63;2.10;;;;;;;7.65;38.80;99819.03;5078616;28;20108;-78
2022/04/17 06:26:35;;;;;;;4.60;2.10;;;;;;;7.73;38.83;99835.06;5065230;28;20460;-77
2022/04/17 06:29:05;;;;;;;4.80;2.57;;;;;;;7.92;38.94;99840.38;5063560;28;20062;-77
2022/04/17 06:31:32;;;;;;;3.93;1.47;;;;;;;7.90;38.80;99840.50;5063735;28;20123;-77
2022/04/17 06:33:57;;;;;;;5.50;2.17;;;;;;;7.98;38.24;99826.63;5113407;28;20602;-77
2022/04/17 06:36:23;;;;;;;4.13;1.60;;;;;;;7.93;38.31;99828.84;5062172;28;20062;-77
2022/04/17 06:38:49;;;;;;;3.47;1.90;;;;;;;8.01;38.38;99826.34;5095862;28;20058;-77
2022/04/17 06:41:15;;;;;;;2.13;1.27;;;;;;;7.95;38.00;99818.97;5062507;28;20031;-77
2022/04/17 06:43:40;;;;;;;2.70;1.63;;;;;;;8.08;37.69;99824.81;5078998;28;20126;-77
2022/04/17 06:46:06;;;;;;;3.33;1.50;;;;;;;8.20;37.32;99834.28;5097259;28;20454;-77
2022/04/17 06:48:32;;;;;;;1.90;1.30;;;;;;;8.01;37.22;99803.34;5062830;28;20043;-77
2022/04/17 06:50:58;;;;;;;10.90;1.90;;;;;;;8.35;36.98;99839.06;5061853;28;20047;-78
2022/04/17 06:53:24;;;;;;;2.97;1.80;;;;;;;8.62;36.45;99838.38;5062196;28;20035;-78
2022/04/17 06:55:50;;;;;;;4.63;2.00;;;;;;;8.69;36.23;99847.41;5113531;28;20512;-76
2022/04/17 06:58:17;;;;;;;10.83;2.07;;;;;;;8.85;36.08;99842.38;5063553;28;20043;-77
2022/04/17 07:00:43;;;;;;;3.83;1.90;;;;;;;8.85;35.79;99838.88;5115829;28;20040;-80
2022/04/17 07:03:09;;;;;;;3.50;1.60;;;;;;;8.95;35.70;99843.19;5064369;28;20100;-78
2022/04/17 07:05:35;;;;;;;6.73;1.70;;;;;;;9.12;35.14;99847.75;5063822;28;20047;-78
2022/04/17 07:08:03;;;;;;;5.03;1.50;;;;;;;9.27;34.91;99856.91;5096651;28;20141;-78
2022/04/17 07:10:30;;;;;;;4.30;1.80;;;;;;;9.20;34.77;99842.56;5079785;28;20035;-78
2022/04/17 07:12:56;;;;;;;12.80;5.83;;;;;;;9.25;34.37;99852.72;5096512;28;20268;-78
2022/04/17 07:15:25;;;;;;;9.52;4.93;;;;;;;9.35;34.33;99859.66;5062163;28;20051;-77
2022/04/17 07:17:52;;;;;;;8.10;1.40;;;;;;;9.12;34.03;99839.78;5096095;28;20142;-77
2022/04/17 07:20:18;;;;;;;4.85;2.05;;;;;;;8.98;33.95;99837.59;5061538;28;20044;-77
2022/04/17 07:22:45;;;;;;;4.37;1.40;;;;;;;8.92;33.79;99862.00;5095790;28;20043;-77
2022/04/17 07:25:14;;;;;;;2.28;1.42;;;;;;;9.15;33.94;99881.91;5095371;28;20070;-78
2022/04/17 07:27:48;;;;;;;2.73;1.10;;;;;;;9.26;33.74;99881.75;5094934;28;20087;-77
2022/04/17 07:30:17;;;;;;;3.43;1.53;;;;;;;8.87;33.71;99877.50;5095136;28;20169;-77
2022/04/17 07:32:44;;;;;;;2.22;1.40;;;;;;;9.05;33.67;99861.72;5081203;28;20122;-77
2022/04/17 07:35:11;;;;;;;5.47;1.50;;;;;;;9.09;33.81;99850.69;5081257;28;20051;-77
2022/04/17 07:37:38;;;;;;;3.03;1.60;;;;;;;9.16;33.42;99862.41;5112214;28;20047;-77
2022/04/17 07:40:11;;;;;;;2.47;1.33;;;;;;;9.32;32.91;99881.16;5079207;28;20035;-77
2022/04/17 07:42:38;;;;;;;4.10;1.65;;;;;;;9.07;32.84;99887.06;5062862;28;20052;-77
2022/04/17 07:45:05;;;;;;;6.57;1.53;;;;;;;9.16;32.82;99896.00;5062439;28;20043;-77
2022/04/17 07:47:33;;;;;;;4.35;1.90;;;;;;;9.01;32.76;99876.22;5061604;28;20465;-77
2022/04/17 07:49:59;;;;;;;4.65;1.40;;;;;;;9.04;32.79;99878.59;5061969;28;20047;-77
2022/04/17 07:52:25;;;;;;;3.47;1.70;;;;;;;9.11;32.66;99883.19;5062017;28;20054;-77
2022/04/17 07:54:50;;;;;;;5.85;1.25;;;;;;;9.12;32.25;99876.06;5063142;28;20496;-77
2022/04/17 07:57:16;;;;;;;2.95;1.23;;;;;;;9.23;32.08;99879.38;5062346;28;20039;-77
2022/04/17 07:59:42;;;;;;;2.13;1.20;;;;;;;9.20;32.23;99881.47;5062527;28;20385;-77
2022/04/17 08:02:21;;;;;;;3.63;1.33;;;;;;;9.25;31.56;99881.88;5077690;28;20389;-78
2022/04/17 08:04:58;;;;;;;2.78;1.42;;;;;;;9.59;31.52;99883.88;5079163;28;20048;-77
2022/04/17 08:07:24;;;;;;;3.92;1.70;;;;;;;9.40;31.59;99889.22;5078555;28;20043;-77
2022/04/17 08:09:50;;;;;;;2.13;1.50;;;;;;;9.51;31.14;99894.38;5094394;28;20115;-77
2022/04/17 08:12:19;;;;;;;9.45;4.85;;;;;;;9.64;31.06;99888.75;5077662;28;20393;-77
2022/04/17 08:14:44;;;;;;;5.80;1.85;;;;;;;9.64;30.96;99880.78;5094505;28;20051;-77
2022/04/17 08:17:10;;;;;;;1.40;1.20;;;;;;;9.82;30.43;99895.78;5060331;28;20043;-77
2022/04/17 08:19:36;;;;;;;3.88;1.70;;;;;;;9.98;30.09;99887.16;5061029;28;20046;-78
2022/04/17 08:22:02;;;;;;;5.70;1.90;;;;;;;10.19;29.96;99864.69;5094006;28;20043;-78
2022/04/17 08:24:30;;;;;;;5.50;1.60;;;;;;;10.12;29.77;99884.03;5094706;28;20050;-77
2022/04/17 08:27:00;;;;;;;3.05;1.60;;;;;;;10.34;29.77;99869.50;5077600;28;20492;-77
2022/04/17 08:29:27;;;;;;;5.57;2.15;;;;;;;10.32;29.37;99874.16;5094867;28;20405;-77
2022/04/17 08:31:54;;;;;;;4.82;2.08;;;;;;;10.16;29.29;99846.44;5060449;28;20046;-77
2022/04/17 08:34:21;;;;;;;6.75;2.20;;;;;;;10.33;29.32;99870.50;5077163;28;20071;-77
2022/04/17 08:36:47;;;;;;;5.70;2.00;;;;;;;10.37;29.22;99869.19;5060962;28;20113;-77
2022/04/17 08:39:12;;;;;;;5.18;2.40;;;;;;;10.35;29.14;99872.00;5077031;28;20494;-77
2022/04/17 08:41:40;;;;;;;8.55;2.40;;;;;;;10.58;29.05;99864.44;5077425;28;20043;-78
2022/04/17 08:44:06;;;;;;;6.00;2.13;;;;;;;10.58;28.97;99856.47;5061337;28;20501;-77
2022/04/17 08:46:31;;;;;;;3.75;1.58;;;;;;;10.53;28.62;99861.41;5094658;28;20052;-78
2022/04/17 08:48:58;;;;;;;3.10;1.30;;;;;;;10.58;28.20;99859.13;5061697;28;20068;-77
2022/04/17 08:51:24;;;;;;;2.95;1.80;;;;;;;10.65;28.49;99857.50;5061395;28;20044;-77
2022/04/17 08:53:50;;;;;;;5.10;1.40;;;;;;;10.51;28.69;99882.78;5061270;28;20983;-77
2022/04/17 08:56:16;;;;;;;5.18;1.52;;;;;;;10.61;28.49;99872.09;5078223;28;20059;-77
2022/04/17 08:58:42;;;;;;;7.45;1.40;;;;;;;10.60;28.57;99889.84;5060339;28;20040;-77
2022/04/17 09:01:12;;;;;;;3.20;1.63;;;;;;;10.76;28.29;99874.06;5060134;28;20043;-77
2022/04/17 09:03:38;;;;;;;4.73;1.57;;;;;;;10.46;28.40;99877.09;5093847;28;20512;-77
2022/04/17 09:06:04;;;;;;;1.50;1.20;;;;;;;10.57;28.38;99868.91;5061340;28;20296;-77
2022/04/17 09:08:30;;;;;;;3.80;1.60;;;;;;;10.60;28.11;99889.00;5077068;28;20561;-77
2022/04/17 09:10:57;;;;;;;2.95;1.40;;;;;;;10.65;28.25;99884.06;5077314;28;20452;-77
2022/04/17 09:13:30;;;;;;;6.03;1.30;;;;;;;10.88;28.08;99903.88;5076877;28;20054;-77
2022/04/17 09:15:57;;;;;;;5.20;2.10;;;;;;;10.81;28.07;99885.03;5062692;28;20097;-78
2022/04/17 09:18:22;;;;;;;8.18;1.80;;;;;;;10.78;27.80;99889.84;5063409;28;20040;-78
2022/04/17 09:20:49;;;;;;;5.05;1.73;;;;;;;10.83;27.47;99884.88;5060555;28;20043;-77
2022/04/17 09:23:34;;;;;;;7.65;1.55;;;;;;;10.99;27.26;99877.91;5077507;28;20039;-77
2022/04/17 09:26:00;;;;;;;5.22;1.50;;;;;;;10.76;27.42;99882.03;5094715;28;20050;-77
2022/04/17 09:28:37;;;;;;;2.38;1.45;;;;;;;11.26;26.92;99893.69;5060332;28;20091;-78
2022/04/17 09:31:10;;;;;;;3.15;1.17;;;;;;;11.28;26.90;99891.72;5093576;28;20035;-78
2022/04/17 09:33:38;;;;;;;9.00;2.00;;;;;;;11.28;27.04;99897.06;5059688;28;20058;-77
2022/04/17 09:36:04;;;;;;;7.25;1.60;;;;;;;11.31;26.99;99891.41;5076765;28;20055;-78
2022/04/17 09:38:33;;;;;;;3.42;1.60;;;;;;;11.66;26.53;99903.78;5059633;28;20166;-78
2022/04/17 09:41:18;;;;;;;4.45;1.35;;;;;;;11.81;26.15;99899.53;5059764;28;20039;-77
2022/04/17 09:43:47;;;;;;;3.85;1.50;;;;;;;11.55;26.01;99893.38;5110025;28;20036;-77
2022/04/17 09:46:14;;;;;;;4.97;1.98;;;;;;;11.63;25.92;99891.63;5059323;28;20065;-77
2022/04/17 09:48:42;;;;;;;6.30;1.63;;;;;;;11.78;25.67;99919.31;5077565;28;20050;-77
2022/04/17 09:51:19;;;;;;;6.47;1.65;;;;;;;12.01;25.77;99908.91;5076112;28;20056;-77
2022/04/17 09:53:55;;;;;;;3.17;1.48;;;;;;;12.01;25.73;99908.91;5111326;28;20515;-77
2022/04/17 09:56:30;;;;;;;9.98;1.70;;;;;;;12.05;25.33;99909.44;5059642;28;20051;-77
2022/04/17 09:58:57;;;;;;;6.78;1.98;;;;;;;12.21;25.25;99922.84;5078927;28;20431;-77
2022/04/17 10:01:24;;;;;;;5.47;1.70;;;;;;;12.12;25.36;99913.97;5063774;28;20097;-77
2022/04/17 10:03:50;;;;;;;5.05;2.47;;;;;;;11.93;24.83;99917.72;5079743;28;20135;-77
2022/04/17 10:06:16;;;;;;;2.67;1.50;;;;;;;11.94;25.02;99915.91;5063050;28;20078;-77
2022/04/17 10:08:44;;;;;;;4.35;1.33;;;;;;;11.97;24.81;99912.06;5064311;28;20440;-78
2022/04/17 10:11:13;;;;;;;6.32;1.77;;;;;;;12.02;24.74;99923.94;5114490;28;20101;-78
2022/04/17 10:13:40;;;;;;;2.78;1.45;;;;;;;11.82;24.75;99906.53;5098176;28;20475;-77
2022/04/17 10:16:08;;;;;;;2.53;1.17;;;;;;;11.74;24.91;99910.00;5080841;28;20485;-78
2022/04/17 10:18:39;;;;;;;3.35;1.52;;;;;;;11.81;24.80;99926.13;5097350;28;20112;-77
2022/04/17 10:21:06;;;;;;;2.70;1.17;;;;;;;11.59;24.98;99919.50;5080901;28;20043;-77
2022/04/17 10:23:34;;;;;;;3.33;1.08;;;;;;;11.57;25.08;99918.00;5067437;28;20038;-77
2022/04/17 10:26:13;;;;;;;4.47;1.50;;;;;;;11.77;24.97;99914.16;5081411;28;20054;-77
2022/04/17 10:28:43;;;;;;;5.85;1.60;;;;;;;11.77;25.24;99914.16;5080677;28;20052;-78
2022/04/17 10:31:20;;;;;;;3.47;1.55;;;;;;;11.78;24.96;99929.13;5097438;28;20052;-78
2022/04/17 10:34:15;;;;;;;5.15;1.60;;;;;;;11.85;24.82;99912.34;5114364;28;20053;-77
2022/04/17 10:36:43;;;;;;;4.30;1.55;;;;;;;11.68;25.17;99923.94;5096513;28;20062;-77
2022/04/17 10:39:24;;;;;;;6.22;1.55;;;;;;;11.99;24.81;99918.06;5079583;28;20039;-78
2022/04/17 10:41:50;;;;;;;3.47;1.50;;;;;;;11.88;25.13;99927.19;5063538;28;20042;-77
2022/04/17 10:44:16;;;;;;;6.28;1.90;;;;;;;12.01;24.93;99927.56;5062999;28;20047;-77
2022/04/17 10:46:52;;;;;;;8.05;2.00;;;;;;;12.42;24.69;99921.41;5080115;28;20462;-78
2022/04/17 10:49:19;;;;;;;2.92;1.60;;;;;;;12.10;24.85;99885.84;5096617;28;20376;-78
2022/04/17 10:51:57;;;;;;;2.60;1.55;;;;;;;12.39;24.54;99911.06;5080273;28;20048;-78
2022/04/17 10:54:24;;;;;;;4.25;1.35;;;;;;;12.22;24.73;99896.03;5099656;28;20051;-78
2022/04/17 10:56:53;;;;;;;11.52;1.95;;;;;;;12.15;24.58;99865.72;5063499;28;20088;-78
2022/04/17 10:59:20;;;;;;;7.03;1.90;;;;;;;12.37;24.56;99914.88;5080244;28;20051;-77
2022/04/17 11:01:51;;;;;;;6.47;1.92;;;;;;;12.65;24.37;99909.13;5079333;28;20044;-77
2022/04/17 11:04:17;;;;;;;;;;;;;;;12.94;24.07;99913.97;5113238;28;20390;-77
2022/04/17 11:06:43;;;;;;;2.65;1.50;;;;;;;12.70;23.77;99895.31;5062118;28;20017;-77
2022/04/17 11:09:12;;;;;;;3.60;1.77;;;;;;;12.81;23.51;99914.44;5078942;28;20128;-78
2022/04/17 11:11:39;;;;;;;3.30;1.60;;;;;;;12.76;23.71;99903.44;5078868;28;20039;-77
2022/04/17 11:14:12;;;;;;;2.88;1.50;;;;;;;12.76;23.85;99881.31;5095983;28;20044;-80
2022/04/17 11:16:55;;;;;;;8.40;3.25;;;;;;;12.77;23.96;99894.47;5112324;28;20496;-78
2022/04/17 11:19:32;;;;;;;4.55;2.33;;;;;;;12.77;23.71;99880.31;5112130;28;20075;-78
2022/04/17 11:22:01;;;;;;;3.83;1.90;;;;;;;12.87;23.96;99900.47;5113052;28;20039;-78
2022/04/17 11:24:30;;;;;;;7.60;2.38;;;;;;;12.70;24.01;99881.97;5112033;28;20043;-78
2022/04/17 11:26:55;;;;;;;6.35;1.70;;;;;;;12.65;23.57;99905.63;5078131;28;20072;-78
2022/04/17 11:29:48;;;;;;;5.82;1.77;;;;;;;12.90;23.23;99894.78;5095510;28;20093;-79
2022/04/17 11:32:17;;;;;;;5.82;1.90;;;;;;;12.82;23.09;99917.97;5062249;28;20047;-77
2022/04/17 11:34:47;;;;;;;6.40;1.33;;;;;;;12.89;23.14;99908.28;5078396;28;20043;-77
2022/04/17 11:37:16;;;;;;;4.22;1.30;;;;;;;13.16;23.07;99902.66;5112085;28;20493;-77
2022/04/17 11:39:42;;;;;;;4.13;1.35;;;;;;;13.21;22.90;99903.81;5062101;28;20050;-77
2022/04/17 11:42:12;;;;;;;11.73;1.70;;;;;;;13.70;22.64;99906.41;5074393;28;20138;-78
2022/04/17 11:44:42;;;;;;;7.53;1.55;;;;;;;13.92;22.37;99902.97;5042687;28;20036;-77
2022/04/17 11:47:10;;;;;;;3.95;1.30;;;;;;;13.78;22.08;99895.72;5075566;28;20040;-77
2022/04/17 11:49:43;;;;;;;2.10;1.48;;;;;;;13.85;22.05;99900.19;5043446;28;20040;-77
2022/04/17 11:52:10;;;;;;;4.22;1.17;;;;;;;13.68;22.06;99900.38;5058625;28;20067;-77